Time;durP1;ratioP1;P1;durP2;ratioP2;P2;SDS_P1;SDS_P2;PMS_P1;PMS_P2;Temp;Humidity;BMP_temperature;BMP_pressure;BME280_temperature;BME280_humidity;BME280_pressure;Samples;Min_cycle;Max_cycle;Signal;HPM_P1;HPM_P2
2021/01/24 00:00:54;;;;;;;15.88;11.60;;;;;;;6.19;72.66;97832.00;5016654;28;20052;-78
2021/01/24 00:03:22;;;;;;;17.23;11.18;;;;;;;6.23;72.64;97832.13;5017726;28;20402;-78
2021/01/24 00:05:49;;;;;;;21.50;12.38;;;;;;;6.20;72.24;97830.06;5017246;28;20480;-78
2021/01/24 00:08:17;;;;;;;17.88;11.68;;;;;;;6.20;72.67;97833.63;5017085;28;20073;-78
2021/01/24 00:10:44;;;;;;;15.80;10.38;;;;;;;6.23;72.08;97830.16;5017634;28;20510;-78
2021/01/24 00:13:11;;;;;;;13.32;9.23;;;;;;;6.22;71.06;97833.28;5016696;28;20049;-78
2021/01/24 00:15:38;;;;;;;12.70;8.38;;;;;;;6.16;70.65;97826.41;5016435;28;20053;-78
2021/01/24 00:18:05;;;;;;;11.52;9.05;;;;;;;6.15;71.39;97827.53;5016789;28;20062;-78
2021/01/24 00:20:32;;;;;;;15.75;9.57;;;;;;;6.09;70.80;97822.25;5017152;28;20068;-78
2021/01/24 00:22:59;;;;;;;12.70;8.48;;;;;;;6.01;70.74;97817.69;5017167;28;20058;-78
2021/01/24 00:25:26;;;;;;;10.52;8.07;;;;;;;5.96;70.91;97828.16;5016096;28;20050;-78
2021/01/24 00:27:53;;;;;;;10.48;8.38;;;;;;;5.86;71.06;97821.16;5016905;28;20484;-78
2021/01/24 00:30:21;;;;;;;10.32;8.32;;;;;;;5.79;71.30;97820.91;5016781;28;20050;-78
2021/01/24 00:32:50;;;;;;;12.50;8.52;;;;;;;5.77;71.41;97812.16;5017078;28;20108;-78
2021/01/24 00:35:18;;;;;;;11.32;7.93;;;;;;;5.74;71.66;97816.44;5016294;28;20053;-78
2021/01/24 00:37:45;;;;;;;11.40;7.72;;;;;;;5.73;70.99;97814.00;5017202;28;20050;-78
2021/01/24 00:40:12;;;;;;;10.70;7.88;;;;;;;5.70;71.86;97810.78;5016863;28;20064;-78
2021/01/24 00:42:39;;;;;;;12.05;8.00;;;;;;;5.68;72.13;97812.31;5016340;28;20422;-78
2021/01/24 00:45:08;;;;;;;10.80;8.30;;;;;;;5.72;72.52;97812.41;5016774;28;20061;-78
2021/01/24 00:47:37;;;;;;;11.57;8.05;;;;;;;5.73;72.35;97809.28;5017454;28;20050;-78
2021/01/24 00:50:06;;;;;;;10.75;7.85;;;;;;;5.75;71.75;97804.22;5015994;28;20061;-78
2021/01/24 00:52:32;;;;;;;10.40;7.43;;;;;;;5.74;71.37;97810.91;5016280;28;20388;-78
2021/01/24 00:54:59;;;;;;;11.00;7.93;;;;;;;5.74;71.36;97810.13;5015809;28;20050;-78
2021/01/24 00:57:26;;;;;;;10.38;7.55;;;;;;;5.70;71.66;97813.56;5016409;28;20050;-78
2021/01/24 00:59:53;;;;;;;11.70;6.90;;;;;;;5.68;71.34;97810.34;5016363;28;20061;-78
2021/01/24 01:02:20;;;;;;;9.98;7.13;;;;;;;5.63;71.84;97801.50;5015893;28;20058;-78
2021/01/24 01:04:48;;;;;;;10.80;7.20;;;;;;;5.62;72.24;97806.19;5016533;28;20054;-78
2021/01/24 01:07:15;;;;;;;9.60;7.22;;;;;;;5.61;71.83;97804.59;5016324;28;20403;-78
2021/01/24 01:09:42;;;;;;;9.80;7.35;;;;;;;5.62;72.12;97800.69;5015085;28;20065;-78
2021/01/24 01:12:09;;;;;;;9.15;7.13;;;;;;;5.63;72.50;97801.50;5016288;28;20488;-78
2021/01/24 01:14:36;;;;;;;9.63;7.38;;;;;;;5.64;72.42;97808.63;5016392;28;20053;-78
2021/01/24 01:17:03;;;;;;;11.60;7.80;;;;;;;5.64;72.31;97805.88;5016438;28;20411;-78
2021/01/24 01:19:30;;;;;;;9.45;7.03;;;;;;;5.64;72.26;97800.34;5016509;28;20045;-78
2021/01/24 01:21:57;;;;;;;9.80;7.25;;;;;;;5.66;71.65;97807.13;5016317;28;20072;-78
2021/01/24 01:24:26;;;;;;;10.52;6.68;;;;;;;5.59;71.60;97809.66;5012719;28;20042;-78
2021/01/24 01:26:53;;;;;;;9.77;7.43;;;;;;;5.60;72.08;97810.47;5015131;28;20061;-78
2021/01/24 01:29:23;;;;;;;10.80;7.20;;;;;;;5.59;72.23;97808.88;5016330;28;20050;-78
2021/01/24 01:31:50;;;;;;;9.43;6.35;;;;;;;5.60;72.33;97814.03;5016168;28;20050;-78
2021/01/24 01:34:16;;;;;;;8.93;6.55;;;;;;;5.63;71.54;97807.03;5015610;28;20069;-78
2021/01/24 01:36:43;;;;;;;7.60;6.10;;;;;;;5.64;71.71;97806.66;5015096;28;20062;-79
2021/01/24 01:39:11;;;;;;;8.52;5.22;;;;;;;5.63;71.31;97810.59;5016509;28;20050;-78
2021/01/24 01:41:38;;;;;;;7.00;5.30;;;;;;;5.63;71.60;97804.28;5015041;28;20050;-78
2021/01/24 01:44:05;;;;;;;6.65;5.20;;;;;;;5.65;71.73;97813.81;5015954;28;20056;-78
2021/01/24 01:46:32;;;;;;;6.05;5.07;;;;;;;5.63;71.52;97812.56;5015422;28;20060;-78
2021/01/24 01:48:59;;;;;;;6.55;4.95;;;;;;;5.65;71.28;97815.78;5015147;28;20058;-78
2021/01/24 01:51:27;;;;;;;6.93;5.22;;;;;;;5.62;71.46;97813.69;5015620;28;20049;-78
2021/01/24 01:53:54;;;;;;;6.82;5.05;;;;;;;5.64;71.73;97808.63;5012119;28;20073;-78
2021/01/24 01:56:22;;;;;;;5.90;4.35;;;;;;;5.64;71.36;97811.38;4995487;28;20073;-78
2021/01/24 01:58:49;;;;;;;5.30;4.03;;;;;;;5.67;71.45;97810.72;4995149;28;20054;-78
2021/01/24 02:01:23;;;;;;;4.85;4.03;;;;;;;5.66;71.49;97815.41;4996116;28;20050;-78
2021/01/24 02:03:58;;;;;;;4.18;3.40;;;;;;;5.65;70.98;97808.28;4995862;28;20050;-78
2021/01/24 02:06:33;;;;;;;5.65;3.80;;;;;;;5.64;71.18;97806.66;4995740;28;20065;-79
2021/01/24 02:09:07;;;;;;;5.25;4.05;;;;;;;5.64;71.18;97805.88;5008302;28;20145;-78
2021/01/24 02:11:44;;;;;;;5.75;4.13;;;;;;;5.64;71.19;97803.91;5014987;28;20514;-78
2021/01/24 02:14:23;;;;;;;4.80;4.28;;;;;;;5.61;71.37;97807.38;5015102;28;20065;-78
2021/01/24 02:16:53;;;;;;;5.78;4.25;;;;;;;5.62;71.39;97803.44;5014643;28;20404;-78
2021/01/24 02:19:25;;;;;;;4.82;3.92;;;;;;;5.62;71.57;97806.19;5014969;28;20050;-78
2021/01/24 02:21:55;;;;;;;4.80;3.88;;;;;;;5.62;71.59;97806.19;5015059;28;20045;-78
2021/01/24 02:24:25;;;;;;;5.38;3.80;;;;;;;5.62;71.01;97810.94;5012719;28;20088;-78
2021/01/24 02:27:02;;;;;;;7.72;4.78;;;;;;;5.63;71.50;97807.81;5014712;28;20058;-78
2021/01/24 02:29:39;;;;;;;6.25;3.85;;;;;;;5.63;71.31;97807.81;5014712;28;20069;-78
2021/01/24 02:32:11;;;;;;;6.03;4.15;;;;;;;5.66;70.92;97812.63;5014605;28;20058;-79
2021/01/24 02:34:39;;;;;;;5.07;3.95;;;;;;;5.63;70.60;97809.78;5014980;28;20502;-79
2021/01/24 02:37:07;;;;;;;9.30;4.80;;;;;;;5.60;71.36;97816.78;5015364;28;20058;-79
2021/01/24 02:39:35;;;;;;;4.45;3.40;;;;;;;5.58;70.65;97813.56;5015586;28;20102;-79
2021/01/24 02:42:02;;;;;;;5.97;3.83;;;;;;;5.54;70.22;97817.38;5014300;28;20054;-79
2021/01/24 02:44:30;;;;;;;5.85;3.60;;;;;;;5.54;70.75;97812.66;5015507;28;20065;-79
2021/01/24 02:46:57;;;;;;;4.25;3.65;;;;;;;5.55;70.78;97824.53;5015322;28;20061;-79
2021/01/24 02:49:28;;;;;;;5.53;3.70;;;;;;;5.55;70.17;97816.25;5014834;28;20049;-79
2021/01/24 02:51:56;;;;;;;4.50;3.33;;;;;;;5.52;70.28;97827.97;5017425;28;20380;-78
2021/01/24 02:54:24;;;;;;;4.50;3.45;;;;;;;5.50;70.58;97828.28;5014447;28;20061;-78
2021/01/24 02:56:51;;;;;;;3.17;2.53;;;;;;;5.47;70.33;97837.28;5014585;28;20496;-79
2021/01/24 02:59:19;;;;;;;3.33;2.78;;;;;;;5.45;69.80;97839.59;5014982;28;20376;-79
2021/01/24 03:01:46;;;;;;;4.13;2.67;;;;;;;5.44;69.37;97826.94;5014752;28;20388;-79
2021/01/24 03:04:13;;;;;;;4.07;2.75;;;;;;;5.42;69.48;97835.56;5014711;28;20058;-79
2021/01/24 03:06:41;;;;;;;3.95;2.75;;;;;;;5.36;69.27;97838.91;5014675;28;20069;-79
2021/01/24 03:09:08;;;;;;;3.45;2.80;;;;;;;5.34;69.79;97835.69;5014269;28;20050;-79
2021/01/24 03:11:38;;;;;;;3.42;2.78;;;;;;;5.34;69.45;97832.94;5015137;28;20060;-79
2021/01/24 03:14:14;;;;;;;3.55;2.70;;;;;;;5.32;69.55;97841.53;5016383;28;20411;-78
2021/01/24 03:16:43;;;;;;;3.85;2.83;;;;;;;5.24;69.62;97839.69;5018211;28;20056;-78
2021/01/24 03:19:13;;;;;;;3.17;2.40;;;;;;;5.22;69.39;97842.00;5018768;28;20061;-79
2021/01/24 03:21:45;;;;;;;3.45;2.70;;;;;;;5.20;69.18;97844.28;5018309;28;20487;-78
2021/01/24 03:24:14;;;;;;;3.10;2.50;;;;;;;5.17;69.07;97840.28;5017148;28;20049;-78
2021/01/24 03:26:41;;;;;;;3.42;2.60;;;;;;;5.12;69.31;97846.00;5017540;28;20049;-78
2021/01/24 03:29:09;;;;;;;3.65;2.65;;;;;;;5.08;68.94;97853.34;5018197;28;20054;-78
2021/01/24 03:31:35;;;;;;;3.22;2.55;;;;;;;5.08;69.16;97850.59;5018590;28;20065;-78
2021/01/24 03:34:07;;;;;;;2.95;2.40;;;;;;;5.00;69.63;97859.78;5018654;28;20057;-78
2021/01/24 03:36:34;;;;;;;3.45;2.42;;;;;;;4.96;69.74;97854.16;5018822;28;20065;-78
2021/01/24 03:39:05;;;;;;;3.05;2.45;;;;;;;4.95;69.46;97855.28;5008167;28;20061;-79
2021/01/24 03:41:31;;;;;;;3.13;2.35;;;;;;;4.96;69.88;97858.88;4999200;28;20440;-79
2021/01/24 03:43:58;;;;;;;4.22;2.70;;;;;;;4.96;69.46;97864.38;4999408;28;20062;-79
2021/01/24 03:46:25;;;;;;;3.53;2.45;;;;;;;4.91;69.63;97861.81;4999290;28;20061;-79
2021/01/24 03:48:52;;;;;;;3.40;2.55;;;;;;;4.91;69.43;97859.88;4998892;28;20054;-80
2021/01/24 03:51:19;;;;;;;3.50;2.50;;;;;;;4.91;69.41;97867.34;4999046;28;20448;-78
2021/01/24 03:53:45;;;;;;;3.67;2.92;;;;;;;4.90;69.73;97865.75;5007911;28;20050;-78
2021/01/24 03:56:13;;;;;;;3.30;2.58;;;;;;;4.82;70.04;97859.16;5018561;28;20400;-78
2021/01/24 03:58:40;;;;;;;3.83;2.75;;;;;;;4.80;69.74;97867.78;5017503;28;20057;-78
2021/01/24 04:01:07;;;;;;;3.58;2.85;;;;;;;4.78;69.92;97867.31;5017841;28;20404;-78
2021/01/24 04:03:35;;;;;;;3.47;2.85;;;;;;;4.77;70.06;97873.97;5017423;28;20057;-78
2021/01/24 04:06:02;;;;;;;4.05;3.00;;;;;;;4.73;69.63;97870.28;5017676;28;20050;-78
2021/01/24 04:08:29;;;;;;;4.90;3.40;;;;;;;4.71;70.50;97875.34;5016603;28;20057;-79
2021/01/24 04:10:56;;;;;;;4.55;3.28;;;;;;;4.67;70.64;97875.19;5017144;28;20050;-79
2021/01/24 04:13:24;;;;;;;4.82;3.40;;;;;;;4.70;70.07;97873.72;5016660;28;20058;-79
2021/01/24 04:15:52;;;;;;;4.97;3.60;;;;;;;4.69;70.07;97872.13;5016930;28;20061;-79
2021/01/24 04:18:18;;;;;;;4.90;3.67;;;;;;;4.66;70.04;97881.03;5016836;28;20069;-79
2021/01/24 04:20:45;;;;;;;5.15;3.80;;;;;;;4.65;71.07;97887.72;5017634;28;20053;-79
2021/01/24 04:23:12;;;;;;;4.90;3.80;;;;;;;4.64;70.58;97880.56;5016078;28;20426;-79
2021/01/24 04:25:39;;;;;;;5.97;4.53;;;;;;;4.65;70.84;97893.22;4996749;28;20518;-78
2021/01/24 04:28:06;;;;;;;4.82;3.63;;;;;;;4.64;70.91;97886.91;4997603;28;20057;-79
2021/01/24 04:30:34;;;;;;;5.57;3.70;;;;;;;4.65;70.76;97894.03;4996627;28;20050;-78
2021/01/24 04:33:01;;;;;;;5.28;3.92;;;;;;;4.62;70.55;97896.66;4997093;28;20058;-78
2021/01/24 04:35:28;;;;;;;5.03;3.92;;;;;;;4.58;70.45;97904.00;4996920;28;20058;-78
2021/01/24 04:37:55;;;;;;;5.20;3.72;;;;;;;4.59;71.24;97908.38;4996757;28;20062;-78
2021/01/24 04:40:21;;;;;;;5.10;3.85;;;;;;;4.60;71.05;97904.44;5015766;28;20057;-78
2021/01/24 04:42:48;;;;;;;3.70;2.90;;;;;;;4.62;70.82;97907.69;5016089;28;20073;-78
2021/01/24 04:45:18;;;;;;;3.90;3.00;;;;;;;4.62;71.30;97915.94;5016540;28;20065;-78
2021/01/24 04:47:46;;;;;;;4.25;3.00;;;;;;;4.61;71.26;97914.34;5015505;28;20065;-79
2021/01/24 04:50:14;;;;;;;4.00;2.78;;;;;;;4.60;71.40;97921.81;5016990;28;20054;-78
2021/01/24 04:52:42;;;;;;;3.70;2.83;;;;;;;4.61;71.24;97925.38;5016197;28;20072;-78
2021/01/24 04:55:10;;;;;;;3.80;2.80;;;;;;;4.63;70.67;97929.41;5016502;28;20506;-78
2021/01/24 04:57:38;;;;;;;3.40;2.60;;;;;;;4.66;70.83;97938.94;5016359;28;20057;-78
2021/01/24 05:00:08;;;;;;;3.67;2.95;;;;;;;4.64;70.57;97941.22;5016303;28;20054;-79
2021/01/24 05:02:36;;;;;;;4.45;3.42;;;;;;;4.64;70.57;97944.00;5016447;28;20050;-79
2021/01/24 05:05:04;;;;;;;4.30;3.30;;;;;;;4.62;71.00;97946.28;5016848;28;20392;-79
2021/01/24 05:07:31;;;;;;;5.00;3.75;;;;;;;4.62;70.79;97949.03;5016421;28;20072;-79
2021/01/24 05:09:58;;;;;;;5.20;3.90;;;;;;;4.58;70.82;97959.16;5016877;28;20372;-79
2021/01/24 05:12:28;;;;;;;5.95;4.55;;;;;;;4.62;70.49;97962.81;5008034;28;20491;-79
2021/01/24 05:14:56;;;;;;;;;;;;;;;4.61;71.48;97961.22;4997403;28;20054;-79
2021/01/24 05:17:23;;;;;;;5.07;3.78;;;;;;;4.58;70.85;97964.66;5000898;28;19925;-79
2021/01/24 05:19:50;;;;;;;5.03;3.95;;;;;;;4.58;70.67;97964.66;4997082;28;20055;-78
2021/01/24 05:22:18;;;;;;;6.20;4.40;;;;;;;4.57;70.76;97963.84;4996920;28;20404;-78
2021/01/24 05:24:47;;;;;;;5.22;3.92;;;;;;;4.57;70.36;97966.59;5007085;28;20054;-78
2021/01/24 05:27:14;;;;;;;5.68;4.28;;;;;;;4.56;70.91;97967.75;5016028;28;20057;-79
2021/01/24 05:29:42;;;;;;;5.65;4.30;;;;;;;4.54;71.04;97974.75;5016639;28;20060;-79
2021/01/24 05:32:11;;;;;;;6.50;5.22;;;;;;;4.54;71.03;97977.50;5016192;28;20058;-78
2021/01/24 05:34:38;;;;;;;8.32;5.88;;;;;;;4.55;70.92;97981.84;5015721;28;20053;-78
2021/01/24 05:37:05;;;;;;;8.13;6.03;;;;;;;4.53;71.75;97979.44;5015117;28;20050;-79
2021/01/24 05:39:33;;;;;;;8.90;6.70;;;;;;;4.51;71.03;97986.44;5016597;28;20058;-79
2021/01/24 05:42:01;;;;;;;12.05;8.25;;;;;;;4.54;71.32;97991.28;5015668;28;20058;-78
2021/01/24 05:44:29;;;;;;;11.85;8.70;;;;;;;4.52;71.01;97997.13;5015477;28;20404;-79
2021/01/24 05:47:02;;;;;;;12.80;10.30;;;;;;;4.48;70.78;97994.22;5014682;28;20045;-79
2021/01/24 05:49:31;;;;;;;13.40;10.98;;;;;;;4.47;70.95;98003.66;5015452;28;20169;-78
2021/01/24 05:52:03;;;;;;;13.18;10.27;;;;;;;4.47;71.29;98006.41;5015428;28;20046;-78
2021/01/24 05:54:38;;;;;;;13.15;10.50;;;;;;;4.44;71.01;98020.84;5015197;28;20046;-78
2021/01/24 05:57:05;;;;;;;12.40;10.45;;;;;;;4.42;71.47;98017.63;5015217;28;20053;-78
2021/01/24 05:59:48;;;;;;;10.52;8.73;;;;;;;4.42;70.96;98023.13;5014879;28;20054;-78
2021/01/24 06:02:16;;;;;;;11.75;9.40;;;;;;;4.38;71.11;98030.44;5014718;28;20050;-79
2021/01/24 06:04:44;;;;;;;10.35;8.80;;;;;;;4.37;71.26;98028.84;5015238;28;20436;-79
2021/01/24 06:07:10;;;;;;;10.73;9.20;;;;;;;4.34;71.54;98040.50;5015417;28;20491;-78
2021/01/24 06:09:41;;;;;;;10.27;8.68;;;;;;;4.33;70.73;98047.19;5014922;28;20408;-78
2021/01/24 06:12:09;;;;;;;10.00;8.43;;;;;;;4.27;71.18;98054.81;5015092;28;20057;-78
2021/01/24 06:14:39;;;;;;;10.27;8.35;;;;;;;4.25;71.40;98053.53;5014312;28;20064;-79
2021/01/24 06:17:14;;;;;;;9.85;8.32;;;;;;;4.22;71.05;98062.47;5014700;28;20060;-78
2021/01/24 06:19:49;;;;;;;9.73;8.25;;;;;;;4.21;71.42;98066.38;5015794;28;20065;-78
2021/01/24 06:22:21;;;;;;;8.90;8.00;;;;;;;4.18;71.90;98078.03;5015172;28;20176;-79
2021/01/24 06:24:53;;;;;;;8.70;7.53;;;;;;;4.14;71.80;98085.38;5003144;28;20065;-79
2021/01/24 06:27:25;;;;;;;7.88;7.07;;;;;;;4.09;72.67;98091.84;4995775;28;20058;-79
2021/01/24 06:29:54;;;;;;;8.00;7.20;;;;;;;4.10;72.41;98098.19;4995920;28;20065;-79
2021/01/24 06:32:24;;;;;;;7.80;7.00;;;;;;;4.09;72.63;98097.38;5001570;28;20049;-79
2021/01/24 06:34:55;;;;;;;8.27;7.47;;;;;;;4.07;72.74;98105.97;5015138;28;20475;-79
2021/01/24 06:37:27;;;;;;;8.13;7.32;;;;;;;4.07;72.65;98117.00;5014866;28;20057;-79
2021/01/24 06:40:01;;;;;;;7.75;7.00;;;;;;;3.97;72.89;98117.34;5015834;28;20053;-78
2021/01/24 06:42:48;;;;;;;8.73;7.45;;;;;;;4.01;73.01;98118.31;5014788;28;20058;-79
2021/01/24 06:45:38;;;;;;;8.68;7.78;;;;;;;4.04;73.21;98127.84;5012638;28;20407;-79
2021/01/24 06:48:05;;;;;;;8.35;7.45;;;;;;;3.98;72.58;98129.97;5013044;28;20054;-78
2021/01/24 06:50:39;;;;;;;8.30;7.40;;;;;;;4.01;72.79;98134.84;5008414;28;20054;-78
2021/01/24 06:53:07;;;;;;;8.05;7.25;;;;;;;4.00;73.00;98135.97;4995975;28;20130;-79
2021/01/24 06:55:38;;;;;;;8.10;7.30;;;;;;;3.98;72.32;98145.69;5014392;28;20054;-78
2021/01/24 06:58:28;;;;;;;9.25;8.25;;;;;;;3.92;72.67;98147.81;5006127;28;20049;-79
2021/01/24 07:01:09;;;;;;;;;;;;;;;3.89;73.26;98158.69;5001239;28;20054;-78
2021/01/24 07:03:36;;;;;;;9.45;8.30;;;;;;;3.79;73.42;98166.13;5008931;28;19921;-78
2021/01/24 07:06:41;;;;;;;8.25;7.32;;;;;;;3.77;73.60;98170.34;5007525;28;20120;-78
2021/01/24 07:09:39;;;;;;;8.00;7.20;;;;;;;3.80;73.83;98180.69;4992976;28;20049;-78
2021/01/24 07:12:08;;;;;;;8.55;7.10;;;;;;;3.77;74.08;98189.63;5000463;28;20049;-78
2021/01/24 07:14:46;;;;;;;8.88;7.05;;;;;;;3.75;74.05;98198.22;5008172;28;20054;-78
2021/01/24 07:17:17;;;;;;;7.80;6.45;;;;;;;3.75;74.00;98195.47;5006832;28;20054;-78
2021/01/24 07:19:48;;;;;;;8.20;6.60;;;;;;;3.75;74.07;98205.66;5012192;28;20411;-78
2021/01/24 07:22:17;;;;;;;7.18;5.85;;;;;;;3.75;74.11;98213.94;5013125;28;20053;-78
2021/01/24 07:24:46;;;;;;;7.97;5.80;;;;;;;3.66;74.50;98214.72;5009584;28;20061;-77
2021/01/24 07:27:15;;;;;;;7.83;6.10;;;;;;;3.70;74.41;98228.66;5012639;28;20053;-77
2021/01/24 07:29:43;;;;;;;6.83;5.30;;;;;;;3.71;75.00;98229.47;5011584;28;20822;-78
2021/01/24 07:32:13;;;;;;;6.55;5.25;;;;;;;3.66;75.11;98238.72;5009504;28;20489;-78
2021/01/24 07:34:40;;;;;;;5.88;4.88;;;;;;;3.68;75.22;98241.16;5003464;28;20050;-78
2021/01/24 07:37:08;;;;;;;8.68;5.45;;;;;;;3.66;75.13;98252.47;5008790;28;20050;-78
2021/01/24 07:39:36;;;;;;;7.30;5.35;;;;;;;3.65;75.19;98254.44;5013248;28;20049;-79
2021/01/24 07:42:04;;;;;;;7.55;5.50;;;;;;;3.62;74.64;98271.56;5010986;28;20050;-79
2021/01/24 07:44:32;;;;;;;7.25;5.25;;;;;;;3.66;75.05;98271.75;5010704;28;20060;-78
2021/01/24 07:46:59;;;;;;;7.43;5.78;;;;;;;3.70;75.62;98280.19;5006821;28;20062;-79
2021/01/24 07:49:26;;;;;;;7.45;5.05;;;;;;;3.72;76.30;98278.72;5013299;28;20057;-79
2021/01/24 07:51:53;;;;;;;7.53;5.50;;;;;;;3.79;75.34;98280.97;5011676;28;20465;-80
2021/01/24 07:54:21;;;;;;;7.35;5.60;;;;;;;3.77;75.41;98291.50;5013231;28;20058;-78
2021/01/24 07:56:48;;;;;;;8.38;6.18;;;;;;;3.82;75.10;98296.84;5014448;28;20463;-78
2021/01/24 07:59:16;;;;;;;8.88;6.35;;;;;;;3.82;74.77;98305.09;5014681;28;20415;-78
2021/01/24 08:01:45;;;;;;;8.60;6.70;;;;;;;3.79;74.75;98309.31;5016042;28;20054;-79
2021/01/24 08:04:12;;;;;;;8.68;6.47;;;;;;;3.82;74.53;98316.94;4998735;28;20073;-79
2021/01/24 08:06:40;;;;;;;9.73;7.47;;;;;;;3.86;74.23;98314.34;4998600;28;20487;-79
2021/01/24 08:09:09;;;;;;;11.45;7.93;;;;;;;3.87;74.25;98324.25;5014319;28;20057;-78
2021/01/24 08:11:37;;;;;;;10.53;7.73;;;;;;;3.90;74.85;98325.53;5007492;28;20407;-79
2021/01/24 08:14:04;;;;;;;15.55;11.32;;;;;;;3.92;74.09;98337.84;4998966;28;20061;-78
2021/01/24 08:16:35;;;;;;;15.40;10.80;;;;;;;3.94;74.15;98338.31;5009195;28;20054;-77
2021/01/24 08:19:04;;;;;;;14.27;10.23;;;;;;;3.98;74.29;98350.31;5017082;28;20050;-78
2021/01/24 08:21:32;;;;;;;15.68;10.35;;;;;;;3.98;74.45;98353.06;5012216;28;20479;-78
2021/01/24 08:24:01;;;;;;;14.10;10.27;;;;;;;4.00;73.69;98356.31;5003393;28;20049;-78
2021/01/24 08:26:28;;;;;;;14.93;11.13;;;;;;;4.04;73.74;98359.25;5014349;28;20050;-78
2021/01/24 08:28:55;;;;;;;17.17;12.05;;;;;;;4.09;73.80;98363.78;5016982;28;20415;-78
2021/01/24 08:31:23;;;;;;;16.88;11.60;;;;;;;4.13;73.89;98362.00;5015872;28;20061;-80
2021/01/24 08:33:52;;;;;;;18.58;11.82;;;;;;;4.16;73.57;98367.69;5012360;28;20046;-79
2021/01/24 08:36:25;;;;;;;24.75;15.25;;;;;;;4.15;73.51;98379.81;5017296;28;20057;-80
2021/01/24 08:38:56;;;;;;;18.35;12.85;;;;;;;4.19;73.83;98377.22;5019427;28;20050;-79
2021/01/24 08:41:29;;;;;;;17.40;12.65;;;;;;;4.25;73.26;98379.50;5017294;28;20065;-79
2021/01/24 08:44:04;;;;;;;22.20;13.70;;;;;;;4.30;73.22;98381.28;5018534;28;20050;-80
2021/01/24 08:46:36;;;;;;;20.17;12.40;;;;;;;4.35;72.91;98383.09;5011780;28;20050;-79
2021/01/24 08:49:07;;;;;;;17.63;11.82;;;;;;;4.40;72.79;98388.41;4997822;28;20054;-78
2021/01/24 08:51:49;;;;;;;16.00;12.00;;;;;;;4.44;72.24;98387.44;5010623;28;20139;-78
2021/01/24 08:54:17;;;;;;;17.90;11.70;;;;;;;4.50;71.96;98392.81;5016346;28;20069;-79
2021/01/24 08:56:45;;;;;;;15.43;10.27;;;;;;;4.53;71.56;98400.41;5017078;28;20057;-79
2021/01/24 08:59:26;;;;;;;14.65;11.15;;;;;;;4.54;71.78;98421.34;5017640;28;20064;-79
2021/01/24 09:01:55;;;;;;;17.25;11.90;;;;;;;4.54;71.67;98410.31;5017857;28;20054;-79
2021/01/24 09:04:24;;;;;;;16.25;11.52;;;;;;;4.60;71.61;98411.75;5014517;28;20054;-79
2021/01/24 09:07:13;;;;;;;18.55;12.40;;;;;;;4.62;71.54;98418.56;5016264;28;20054;-79
2021/01/24 09:09:43;;;;;;;16.55;11.55;;;;;;;4.71;71.70;98426.84;5017334;28;20049;-79
2021/01/24 09:12:12;;;;;;;17.80;13.15;;;;;;;4.75;71.83;98427.81;5017532;28;20050;-81
2021/01/24 09:14:39;;;;;;;17.33;12.40;;;;;;;4.82;71.28;98427.31;5011404;28;20054;-78
2021/01/24 09:17:11;;;;;;;19.70;12.70;;;;;;;4.88;71.43;98432.31;5016860;28;20495;-79
2021/01/24 09:19:43;;;;;;;17.30;12.48;;;;;;;4.99;71.09;98434.75;5016165;28;20417;-79
2021/01/24 09:22:12;;;;;;;18.23;12.27;;;;;;;5.02;70.24;98434.91;5001419;28;20054;-79
2021/01/24 09:24:40;;;;;;;17.73;12.27;;;;;;;5.00;70.26;98439.13;5004588;28;20049;-79
2021/01/24 09:27:09;;;;;;;20.98;14.50;;;;;;;5.08;69.98;98443.81;5018276;28;20453;-79
2021/01/24 09:29:37;;;;;;;24.13;15.60;;;;;;;5.15;69.76;98446.88;5009568;28;20480;-79
2021/01/24 09:32:05;;;;;;;25.83;15.70;;;;;;;5.15;69.78;98449.66;5018594;28;20042;-79
2021/01/24 09:34:32;;;;;;;25.58;16.42;;;;;;;5.12;70.23;98453.03;5018539;28;20065;-79
2021/01/24 09:36:59;;;;;;;23.90;15.05;;;;;;;5.13;70.38;98454.69;5015850;28;20068;-80
2021/01/24 09:39:27;;;;;;;24.85;16.98;;;;;;;5.13;70.45;98471.25;5011253;28;20550;-80
2021/01/24 09:41:54;;;;;;;24.65;17.02;;;;;;;5.13;70.38;98467.69;5016103;28;20389;-79
2021/01/24 09:44:23;;;;;;;27.67;18.08;;;;;;;5.12;70.89;98469.59;5016868;28;20057;-80
2021/01/24 09:46:50;;;;;;;28.60;18.27;;;;;;;5.15;70.52;98474.47;5019827;28;20046;-80
2021/01/24 09:49:17;;;;;;;27.98;18.92;;;;;;;5.20;70.91;98482.56;5018766;28;20468;-80
2021/01/24 09:51:45;;;;;;;27.60;18.23;;;;;;;5.17;70.71;98485.19;5018365;28;20053;-80
2021/01/24 09:54:14;;;;;;;29.98;18.52;;;;;;;5.22;70.18;98487.78;5017434;28;20050;-79
2021/01/24 09:56:42;;;;;;;30.83;17.73;;;;;;;5.26;70.01;98494.25;4999464;28;20065;-80
2021/01/24 09:59:09;;;;;;;31.13;18.67;;;;;;;5.27;69.98;98488.44;5008894;28;20057;-81
2021/01/24 10:01:36;;;;;;;31.83;19.48;;;;;;;5.32;70.24;98497.66;5009270;28;20054;-79
2021/01/24 10:04:03;;;;;;;31.77;20.33;;;;;;;5.36;70.11;98501.41;4999133;28;20058;-80
2021/01/24 10:06:32;;;;;;;30.35;18.02;;;;;;;5.43;70.10;98493.41;5000220;28;20062;-80
2021/01/24 10:09:00;;;;;;;30.48;17.98;;;;;;;5.47;69.48;98495.19;4994614;28;20132;-79
2021/01/24 10:11:27;;;;;;;34.45;18.67;;;;;;;5.51;69.57;98502.81;5018532;28;20065;-79
2021/01/24 10:13:55;;;;;;;32.97;20.95;;;;;;;5.47;69.65;98508.97;5018823;28;20399;-79
2021/01/24 10:16:23;;;;;;;32.55;19.67;;;;;;;5.53;69.62;98514.34;5020389;28;20060;-81
2021/01/24 10:18:50;;;;;;;33.20;19.45;;;;;;;5.50;69.43;98526.84;5021644;28;20483;-78
2021/01/24 10:21:17;;;;;;;30.52;18.05;;;;;;;5.52;69.46;98515.47;5004779;28;20061;-78
2021/01/24 10:23:44;;;;;;;31.13;17.55;;;;;;;5.47;69.20;98520.03;5014199;28;20046;-79
2021/01/24 10:26:11;;;;;;;36.15;20.90;;;;;;;5.50;69.40;98524.06;4998977;28;20065;-79
2021/01/24 10:28:38;;;;;;;33.53;20.45;;;;;;;5.57;69.35;98523.59;5016821;28;20057;-79
2021/01/24 10:31:07;;;;;;;33.33;21.25;;;;;;;5.59;68.86;98527.66;5016646;28;20069;-79
2021/01/24 10:33:34;;;;;;;33.95;19.85;;;;;;;5.56;69.45;98536.56;5017006;28;20503;-79
2021/01/24 10:36:01;;;;;;;31.45;19.35;;;;;;;5.56;69.25;98539.34;5017082;28;20404;-79
2021/01/24 10:38:28;;;;;;;32.67;18.83;;;;;;;5.51;69.37;98538.72;5010418;28;20053;-79
2021/01/24 10:40:54;;;;;;;31.25;18.90;;;;;;;5.47;68.83;98541.31;5004046;28;20502;-79
2021/01/24 10:43:21;;;;;;;29.45;18.88;;;;;;;5.46;69.36;98546.03;5016162;28;20064;-79
2021/01/24 10:45:49;;;;;;;33.35;18.75;;;;;;;5.46;69.29;98550.75;5016474;28;20058;-79
2021/01/24 10:48:17;;;;;;;36.33;20.45;;;;;;;5.42;69.25;98552.53;5003875;28;20058;-82
2021/01/24 10:50:44;;;;;;;30.05;18.65;;;;;;;5.44;69.49;98550.28;5007573;28;20072;-79
2021/01/24 10:53:11;;;;;;;39.63;21.27;;;;;;;5.42;69.54;98558.06;5016001;28;20062;-79
2021/01/24 10:55:38;;;;;;;30.65;18.90;;;;;;;5.44;69.33;98572.34;5016587;28;20562;-79
2021/01/24 10:58:04;;;;;;;30.63;19.30;;;;;;;5.47;69.36;98572.50;5015566;28;20053;-79
2021/01/24 11:00:32;;;;;;;30.10;19.08;;;;;;;5.48;69.67;98576.06;5017140;28;20503;-79
2021/01/24 11:02:59;;;;;;;28.02;17.35;;;;;;;5.47;69.64;98575.25;5017254;28;20076;-79
2021/01/24 11:05:29;;;;;;;31.25;18.63;;;;;;;5.48;69.49;98578.81;5012180;28;20054;-80
2021/01/24 11:07:56;;;;;;;30.67;18.90;;;;;;;5.55;69.37;98579.16;5010659;28;20046;-78
2021/01/24 11:10:24;;;;;;;27.88;18.45;;;;;;;5.61;68.83;98580.59;4997163;28;20050;-79
2021/01/24 11:12:51;;;;;;;27.35;16.70;;;;;;;5.65;67.91;98576.03;4997004;28;20464;-79
2021/01/24 11:15:18;;;;;;;24.58;15.63;;;;;;;5.62;68.39;98581.41;5013730;28;20054;-79
2021/01/24 11:17:45;;;;;;;21.77;14.68;;;;;;;5.59;68.66;98582.06;5003613;28;20050;-79
2021/01/24 11:20:12;;;;;;;24.40;15.32;;;;;;;5.54;68.95;98579.47;5015151;28;20062;-78
2021/01/24 11:22:40;;;;;;;23.95;15.75;;;;;;;5.52;68.55;98590.03;5013497;28;20062;-79
2021/01/24 11:25:10;;;;;;;24.58;14.90;;;;;;;5.52;68.78;98595.56;5014993;28;20064;-79
2021/01/24 11:27:37;;;;;;;22.13;15.77;;;;;;;5.51;68.68;98592.00;5016302;28;20061;-79
2021/01/24 11:30:07;;;;;;;23.67;14.75;;;;;;;5.47;68.64;98591.00;5017628;28;20392;-79
2021/01/24 11:32:34;;;;;;;23.13;15.13;;;;;;;5.47;68.72;98596.53;5017424;28;20056;-79
2021/01/24 11:35:01;;;;;;;20.38;13.75;;;;;;;5.46;68.55;98603.22;5018491;28;20050;-79
2021/01/24 11:37:28;;;;;;;19.27;13.00;;;;;;;5.47;68.28;98611.16;5018800;28;20491;-79
2021/01/24 11:39:56;;;;;;;20.33;13.55;;;;;;;5.49;68.33;98606.09;5019957;28;20483;-79
2021/01/24 11:42:24;;;;;;;16.67;11.32;;;;;;;5.50;67.89;98612.44;5018571;28;20065;-79
2021/01/24 11:44:51;;;;;;;17.55;11.73;;;;;;;5.49;67.93;98616.34;5019662;28;20046;-79